createdAt,value
2022-09-17T00:01:20.819Z,29.25
2022-09-17T00:03:52.617Z,25.37
2022-09-17T00:06:19.563Z,28.77
2022-09-17T00:08:46.409Z,19.23
2022-09-17T00:11:15.483Z,21.60
2022-09-17T00:13:42.650Z,19.90
2022-09-17T00:16:09.616Z,27.08
2022-09-17T00:18:40.670Z,27.27
2022-09-17T00:21:08.106Z,24.85
2022-09-17T00:23:34.921Z,24.40
2022-09-17T00:26:04.999Z,23.48
2022-09-17T00:28:31.864Z,30.87
2022-09-17T00:30:58.690Z,26.67
2022-09-17T00:33:25.526Z,31.83
2022-09-17T00:35:59.292Z,28.73
2022-09-17T00:38:26.501Z,36.77
2022-09-17T00:40:53.370Z,24.93
2022-09-17T00:43:41.947Z,22.80
2022-09-17T00:46:33.491Z,23.90
2022-09-17T00:49:02.433Z,29.02
2022-09-17T00:51:42.252Z,23.33
2022-09-17T00:54:10.298Z,22.95
2022-09-17T00:56:38.912Z,14.50
2022-09-17T00:59:05.959Z,15.30
2022-09-17T01:01:32.943Z,20.08
2022-09-17T01:03:59.818Z,14.93
2022-09-17T01:06:46.721Z,9.13
2022-09-17T01:09:19.605Z,14.57
2022-09-17T01:11:56.712Z,18.85
2022-09-17T01:14:47.187Z,16.80
2022-09-17T01:17:28.758Z,26.55
2022-09-17T01:20:32.499Z,28.20
2022-09-17T01:23:05.518Z,23.48
2022-09-17T01:25:38.225Z,24.02
2022-09-17T01:28:37.181Z,19.38
2022-09-17T01:31:25.278Z,18.10
2022-09-17T01:34:01.593Z,22.75
2022-09-17T01:36:28.331Z,20.02
2022-09-17T01:39:13.962Z,16.08
2022-09-17T01:41:45.658Z,25.25
2022-09-17T01:44:40.142Z,18.15
2022-09-17T01:47:22.477Z,24.58
2022-09-17T01:49:51.559Z,23.63
2022-09-17T01:52:18.404Z,21.42
2022-09-17T01:54:49.292Z,19.63
2022-09-17T01:57:27.681Z,17.95
2022-09-17T02:00:10.483Z,15.68
2022-09-17T02:02:41.995Z,17.58
2022-09-17T02:05:15.666Z,21.02
2022-09-17T02:07:45.951Z,26.30
2022-09-17T02:10:14.638Z,17.55
2022-09-17T02:12:46.866Z,16.17
2022-09-17T02:15:21.644Z,23.00
2022-09-17T02:18:17.968Z,12.45
2022-09-17T02:20:50.974Z,18.30
2022-09-17T02:23:21.313Z,18.42
2022-09-17T02:25:53.259Z,15.90
2022-09-17T02:28:25.382Z,19.50
2022-09-17T02:30:52.181Z,19.00
2022-09-17T02:33:18.981Z,25.17
2022-09-17T02:35:46.633Z,16.02
2022-09-17T02:38:13.448Z,23.75
2022-09-17T02:40:50.850Z,19.20
2022-09-17T02:43:29.391Z,19.10
2022-09-17T02:46:03.913Z,18.75
2022-09-17T02:48:36.809Z,21.20
2022-09-17T02:51:09.958Z,23.63
2022-09-17T02:53:46.308Z,16.65
2022-09-17T02:56:36.972Z,17.13
2022-09-17T02:59:34.215Z,15.88
2022-09-17T03:02:08.961Z,16.77
2022-09-17T03:04:35.805Z,15.30
2022-09-17T03:07:09.138Z,17.17
2022-09-17T03:09:36.305Z,20.65
2022-09-17T03:12:03.722Z,20.35
2022-09-17T03:14:30.603Z,19.63
2022-09-17T03:16:57.540Z,12.70
2022-09-17T03:19:24.440Z,25.35
2022-09-17T03:21:51.221Z,15.82
2022-09-17T03:24:19.016Z,14.13
2022-09-17T03:26:47.548Z,16.77
2022-09-17T03:29:14.353Z,19.20
2022-09-17T03:31:41.291Z,14.97
2022-09-17T03:34:08.127Z,18.33
2022-09-17T03:36:34.905Z,11.60
2022-09-17T03:39:01.662Z,14.23
2022-09-17T03:41:28.489Z,17.50
2022-09-17T03:43:55.255Z,11.13
2022-09-17T03:46:22.167Z,25.47
2022-09-17T03:48:49.001Z,19.00
2022-09-17T03:51:15.856Z,10.52
2022-09-17T03:53:42.722Z,15.45
2022-09-17T03:56:09.531Z,10.60
2022-09-17T03:58:36.641Z,15.23
2022-09-17T04:01:04.715Z,18.88
2022-09-17T04:03:31.570Z,20.58
2022-09-17T04:05:58.426Z,15.65
2022-09-17T04:08:25.281Z,14.15
2022-09-17T04:10:52.066Z,14.30
2022-09-17T04:13:18.927Z,16.13
2022-09-17T04:15:46.190Z,39.38
2022-09-17T04:18:13.246Z,35.25
2022-09-17T04:20:40.116Z,26.80
2022-09-17T04:23:10.199Z,19.23
2022-09-17T04:25:37.006Z,16.50
2022-09-17T04:28:03.950Z,19.03
2022-09-17T04:30:30.708Z,20.10
2022-09-17T04:32:57.460Z,17.80
2022-09-17T04:35:24.326Z,22.93
2022-09-17T04:37:57.437Z,23.23
2022-09-17T04:40:24.937Z,22.87
2022-09-17T04:43:03.307Z,18.17
2022-09-17T04:45:33.635Z,25.93
2022-09-17T04:48:00.621Z,26.20
2022-09-17T04:50:27.440Z,25.90
2022-09-17T04:52:54.285Z,16.10
2022-09-17T04:55:21.052Z,21.00
2022-09-17T04:57:50.860Z,18.03
2022-09-17T05:00:18.223Z,17.33
2022-09-17T05:02:46.160Z,16.83
2022-09-17T05:05:13.449Z,14.63
2022-09-17T05:07:40.281Z,19.35
2022-09-17T05:10:07.851Z,20.17
2022-09-17T05:12:34.781Z,17.03
2022-09-17T05:15:01.793Z,17.45
2022-09-17T05:17:28.712Z,20.43
2022-09-17T05:19:55.464Z,16.27
2022-09-17T05:22:22.249Z,10.50
2022-09-17T05:24:49.070Z,16.10
2022-09-17T05:27:15.939Z,16.07
2022-09-17T05:29:42.706Z,15.20
2022-09-17T05:32:09.457Z,13.67
2022-09-17T05:34:36.255Z,17.57
2022-09-17T05:37:03.013Z,17.47
2022-09-17T05:39:29.762Z,23.23
2022-09-17T05:41:56.562Z,14.40
2022-09-17T05:44:23.738Z,15.53
2022-09-17T05:46:52.980Z,18.70
2022-09-17T05:49:19.831Z,15.27
2022-09-17T05:51:46.586Z,13.87
2022-09-17T05:54:13.354Z,22.07
2022-09-17T05:56:40.222Z,12.80
2022-09-17T05:59:08.038Z,17.93
2022-09-17T06:01:34.807Z,11.73
2022-09-17T06:04:04.525Z,14.77
2022-09-17T06:06:31.426Z,18.77
2022-09-17T06:09:01.094Z,17.67
2022-09-17T06:11:28.510Z,18.43
2022-09-17T06:13:55.798Z,18.75
2022-09-17T06:16:23.199Z,15.10
2022-09-17T06:18:53.171Z,23.47
2022-09-17T06:21:21.576Z,20.23
2022-09-17T06:23:48.825Z,16.35
2022-09-17T06:26:15.660Z,24.33
2022-09-17T06:28:42.630Z,22.90
2022-09-17T06:31:10.055Z,15.57
2022-09-17T06:33:36.889Z,21.50
2022-09-17T06:36:13.127Z,27.67
2022-09-17T06:38:40.683Z,18.90
2022-09-17T06:41:07.509Z,20.27
2022-09-17T06:43:34.280Z,27.77
2022-09-17T06:46:02.293Z,17.97
2022-09-17T06:48:30.049Z,20.90
2022-09-17T06:50:58.785Z,9.83
2022-09-17T06:53:25.585Z,11.98
2022-09-17T06:55:52.535Z,21.80
2022-09-17T06:58:19.346Z,17.97
2022-09-17T07:00:46.161Z,23.33
2022-09-17T07:03:13.039Z,18.87
2022-09-17T07:05:39.974Z,13.47
2022-09-17T07:08:06.794Z,19.80
2022-09-17T07:10:33.590Z,21.97
2022-09-17T07:13:00.403Z,17.03
2022-09-17T07:15:27.227Z,16.23
2022-09-17T07:17:54.067Z,15.27
2022-09-17T07:20:20.933Z,13.73
2022-09-17T07:22:56.582Z,19.63
2022-09-17T07:25:24.499Z,18.63
2022-09-17T07:27:51.302Z,21.40
2022-09-17T07:30:18.542Z,13.53
2022-09-17T07:32:45.364Z,9.57
2022-09-17T07:35:12.491Z,14.50
2022-09-17T07:37:39.514Z,13.20
2022-09-17T07:40:07.630Z,10.63
2022-09-17T07:42:34.907Z,10.43
2022-09-17T07:45:02.349Z,6.97
2022-09-17T07:47:29.292Z,8.70
2022-09-17T07:49:56.053Z,5.63
2022-09-17T07:52:22.844Z,15.10
2022-09-17T07:54:49.646Z,9.37
2022-09-17T07:57:16.416Z,10.97
2022-09-17T07:59:43.225Z,13.00
2022-09-17T08:02:14.251Z,15.53
2022-09-17T08:04:44.178Z,23.13
2022-09-17T08:07:13.964Z,15.80
2022-09-17T08:09:40.787Z,25.23
2022-09-17T08:12:07.915Z,19.80
2022-09-17T08:14:34.683Z,16.50
2022-09-17T08:17:01.537Z,16.43
2022-09-17T08:19:31.987Z,17.60
2022-09-17T08:21:58.831Z,16.33
2022-09-17T08:24:25.674Z,9.83
2022-09-17T08:26:52.582Z,10.68
2022-09-17T08:29:19.539Z,11.60
2022-09-17T08:31:46.419Z,8.37
2022-09-17T08:34:13.403Z,13.07
2022-09-17T08:36:40.213Z,12.07
2022-09-17T08:39:07.055Z,24.37
2022-09-17T08:41:40.266Z,11.65
2022-09-17T08:44:30.982Z,13.63
2022-09-17T08:47:01.911Z,12.75
2022-09-17T08:49:34.357Z,12.85
2022-09-17T08:52:51.839Z,6.97
2022-09-17T08:55:31.549Z,19.77
2022-09-17T08:58:19.646Z,11.70
2022-09-17T09:00:55.949Z,9.85
2022-09-17T09:03:41.091Z,12.82
2022-09-17T09:06:10.901Z,12.10
2022-09-17T09:08:41.038Z,16.83
2022-09-17T09:11:18.238Z,16.20
2022-09-17T09:13:47.298Z,13.88
2022-09-17T09:16:28.454Z,12.73
2022-09-17T09:18:55.967Z,5.45
2022-09-17T09:21:30.127Z,11.80
2022-09-17T09:24:32.179Z,12.43
2022-09-17T09:27:19.478Z,10.38
2022-09-17T09:29:56.810Z,11.23
2022-09-17T09:32:38.443Z,11.43
2022-09-17T09:35:27.411Z,12.55
2022-09-17T09:38:03.939Z,15.73
2022-09-17T09:40:55.550Z,12.98
2022-09-17T09:43:29.528Z,12.57
2022-09-17T09:46:03.528Z,15.55
2022-09-17T09:48:45.339Z,16.60
2022-09-17T09:51:36.177Z,17.80
2022-09-17T09:54:08.698Z,15.95
2022-09-17T09:57:09.175Z,12.55
2022-09-17T09:59:36.575Z,14.55
2022-09-17T10:02:03.635Z,16.48
2022-09-17T10:04:32.666Z,16.05
2022-09-17T10:07:07.150Z,11.88
2022-09-17T10:09:35.399Z,17.90
2022-09-17T10:12:14.919Z,16.42
2022-09-17T10:14:42.962Z,16.40
2022-09-17T10:17:21.635Z,13.32
2022-09-17T10:20:12.693Z,12.68
2022-09-17T10:22:44.631Z,11.30
2022-09-17T10:25:30.045Z,16.13
2022-09-17T10:27:57.945Z,12.40
2022-09-17T10:30:26.007Z,15.60
2022-09-17T10:33:16.327Z,11.77
2022-09-17T10:35:54.628Z,15.75
2022-09-17T10:38:31.782Z,21.83
2022-09-17T10:41:19.223Z,10.18
2022-09-17T10:43:46.132Z,11.00
2022-09-17T10:46:16.035Z,30.13
2022-09-17T10:49:08.374Z,19.63
2022-09-17T10:51:35.191Z,19.27
2022-09-17T10:54:19.843Z,16.15
2022-09-17T10:56:57.435Z,17.38
2022-09-17T10:59:42.780Z,16.20
2022-09-17T11:02:45.511Z,20.58
2022-09-17T11:05:41.794Z,16.85
2022-09-17T11:08:08.567Z,14.50
2022-09-17T11:10:43.460Z,9.73
2022-09-17T11:13:17.676Z,14.40
2022-09-17T11:15:57.208Z,23.10
2022-09-17T11:18:34.970Z,21.13
2022-09-17T11:21:23.087Z,17.80
2022-09-17T11:24:15.612Z,15.98
2022-09-17T11:26:58.018Z,17.30
2022-09-17T11:29:35.476Z,13.15
2022-09-17T11:32:23.467Z,13.60
2022-09-17T11:35:07.085Z,9.18
2022-09-17T11:37:43.538Z,16.45
2022-09-17T11:40:16.753Z,17.38
2022-09-17T11:42:53.458Z,15.10
2022-09-17T11:45:29.778Z,15.68
2022-09-17T11:48:00.178Z,10.60
2022-09-17T11:50:39.975Z,11.38
2022-09-17T11:53:23.572Z,13.00
2022-09-17T11:56:02.535Z,11.52
2022-09-17T11:58:39.680Z,14.55
2022-09-17T12:01:09.584Z,17.13
2022-09-17T12:04:00.349Z,12.40
2022-09-17T12:06:52.875Z,13.00
2022-09-17T12:09:21.583Z,14.80
2022-09-17T12:12:00.377Z,18.02
2022-09-17T12:14:51.231Z,21.45
2022-09-17T12:17:23.966Z,16.63
2022-09-17T12:19:57.562Z,17.95
2022-09-17T12:22:26.530Z,17.60
2022-09-17T12:24:53.807Z,11.95
2022-09-17T12:27:38.120Z,11.20
2022-09-17T12:30:11.144Z,15.85
2022-09-17T12:32:53.082Z,14.02
2022-09-17T12:36:04.160Z,8.48
2022-09-17T12:38:43.677Z,13.40
2022-09-17T12:41:32.305Z,12.70
2022-09-17T12:44:08.011Z,12.88
2022-09-17T12:46:47.995Z,11.20
2022-09-17T12:49:23.719Z,9.38
2022-09-17T12:51:55.397Z,8.52
2022-09-17T12:54:34.160Z,10.77
2022-09-17T12:57:03.999Z,12.68
2022-09-17T12:59:31.826Z,12.50
2022-09-17T13:02:14.404Z,10.98
2022-09-17T13:05:02.514Z,9.30
2022-09-17T13:07:57.241Z,10.73
2022-09-17T13:10:41.114Z,13.02
2022-09-17T13:13:13.584Z,7.20
2022-09-17T13:16:16.962Z,12.77
2022-09-17T13:19:15.716Z,9.63
2022-09-17T13:22:00.610Z,7.70
2022-09-17T13:24:30.333Z,17.77
2022-09-17T13:26:58.671Z,12.60
2022-09-17T13:29:43.995Z,19.95
2022-09-17T13:32:33.818Z,17.05
2022-09-17T13:35:09.693Z,19.00
2022-09-17T13:37:39.350Z,22.27
2022-09-17T13:40:19.496Z,21.00
2022-09-17T13:42:47.643Z,20.90
2022-09-17T13:45:18.508Z,24.38
2022-09-17T13:47:52.930Z,16.73
2022-09-17T13:50:43.401Z,20.80
2022-09-17T13:53:17.485Z,18.02
2022-09-17T13:55:51.106Z,13.23
2022-09-17T13:58:20.989Z,23.92
2022-09-17T14:00:56.945Z,19.57
2022-09-17T14:03:37.249Z,15.98
2022-09-17T14:06:11.200Z,12.57
2022-09-17T14:08:43.948Z,14.43
2022-09-17T14:11:22.855Z,23.73
2022-09-17T14:13:55.607Z,20.63
2022-09-17T14:16:29.172Z,17.70
2022-09-17T14:19:16.457Z,17.70
2022-09-17T14:22:04.335Z,14.68
2022-09-17T14:24:50.206Z,18.92
2022-09-17T14:27:44.943Z,18.73
2022-09-17T14:30:21.310Z,14.93
2022-09-17T14:33:08.001Z,11.32
2022-09-17T14:35:38.855Z,11.25
2022-09-17T14:38:23.130Z,6.07
2022-09-17T14:41:12.836Z,10.60
2022-09-17T14:44:06.445Z,17.90
2022-09-17T14:46:45.225Z,13.23
2022-09-17T14:49:25.574Z,14.40
2022-09-17T14:51:53.436Z,11.27
2022-09-17T14:54:21.764Z,12.00
2022-09-17T14:57:08.799Z,16.35
2022-09-17T14:59:51.592Z,20.75
2022-09-17T15:02:33.643Z,13.27
2022-09-17T15:05:00.716Z,15.43
2022-09-17T15:07:27.818Z,14.32
2022-09-17T15:09:55.541Z,14.38
2022-09-17T15:12:26.083Z,18.23
2022-09-17T15:14:52.951Z,14.70
2022-09-17T15:17:19.791Z,25.42
2022-09-17T15:19:48.666Z,29.55
2022-09-17T15:22:23.482Z,19.83
2022-09-17T15:25:10.666Z,23.27
2022-09-17T15:27:44.711Z,18.55
2022-09-17T15:30:18.004Z,11.88
2022-09-17T15:32:50.938Z,17.17
2022-09-17T15:35:20.357Z,18.00
2022-09-17T15:38:21.850Z,15.13
2022-09-17T15:40:44.565Z,16.92
2022-09-17T15:43:28.656Z,15.75
2022-09-17T15:45:55.802Z,13.93
2022-09-17T15:48:28.438Z,16.52
2022-09-17T15:50:56.593Z,21.73
2022-09-17T15:53:27.599Z,19.48
2022-09-17T15:56:08.013Z,12.57
2022-09-17T15:58:47.002Z,13.70
2022-09-17T16:01:17.072Z,15.43
2022-09-17T16:03:44.291Z,25.92
2022-09-17T16:06:20.025Z,15.30
2022-09-17T16:08:48.284Z,16.50
2022-09-17T16:11:15.667Z,15.57
2022-09-17T16:13:42.663Z,16.03
2022-09-17T16:16:12.498Z,11.57
2022-09-17T16:18:39.381Z,15.75
2022-09-17T16:21:06.286Z,13.50
2022-09-17T16:23:33.071Z,19.80
2022-09-17T16:25:59.869Z,28.65
2022-09-17T16:28:26.816Z,21.60
2022-09-17T16:30:53.560Z,15.45
2022-09-17T16:33:20.395Z,17.13
2022-09-17T16:35:47.218Z,14.87
2022-09-17T16:38:14.188Z,14.60
2022-09-17T16:40:45.290Z,17.03
2022-09-17T16:43:12.097Z,17.17
2022-09-17T16:45:38.969Z,11.30
2022-09-17T16:48:05.971Z,13.05
2022-09-17T16:50:32.994Z,13.57
2022-09-17T16:53:04.701Z,10.75
2022-09-17T16:55:32.106Z,10.68
2022-09-17T16:57:59.119Z,14.47
2022-09-17T17:00:25.898Z,14.70
2022-09-17T17:02:54.778Z,13.03
2022-09-17T17:05:22.074Z,18.33
2022-09-17T17:07:49.155Z,13.63
2022-09-17T17:10:16.075Z,9.68
2022-09-17T17:12:42.841Z,16.07
2022-09-17T17:15:10.131Z,15.07
2022-09-17T17:17:37.086Z,12.83
2022-09-17T17:20:09.624Z,21.37
2022-09-17T17:22:43.699Z,11.13
2022-09-17T17:25:11.579Z,16.20
2022-09-17T17:27:38.462Z,9.90
2022-09-17T17:30:07.014Z,14.73
2022-09-17T17:32:34.589Z,14.60
2022-09-17T17:35:01.406Z,15.73
2022-09-17T17:37:28.580Z,13.93
2022-09-17T17:39:55.488Z,13.73
2022-09-17T17:42:22.479Z,10.73
2022-09-17T17:44:49.234Z,15.80
2022-09-17T17:47:16.037Z,11.38
2022-09-17T17:49:44.576Z,11.77
2022-09-17T17:52:11.459Z,14.00
2022-09-17T17:54:38.246Z,11.85
2022-09-17T17:57:05.254Z,12.35
2022-09-17T17:59:32.281Z,11.82
2022-09-17T18:01:59.153Z,9.35
2022-09-17T18:04:25.953Z,14.50
2022-09-17T18:06:52.743Z,13.95
2022-09-17T18:09:19.522Z,13.48
2022-09-17T18:11:46.381Z,10.10
2022-09-17T18:14:13.837Z,10.68
2022-09-17T18:16:40.970Z,14.70
2022-09-17T18:19:09.684Z,20.50
2022-09-17T18:21:36.447Z,11.50
2022-09-17T18:24:03.399Z,11.27
2022-09-17T18:26:30.487Z,15.25
2022-09-17T18:28:57.307Z,15.35
2022-09-17T18:31:31.849Z,22.35
2022-09-17T18:34:01.632Z,18.83
2022-09-17T18:36:29.954Z,16.63
2022-09-17T18:39:16.663Z,14.55
2022-09-17T18:41:48.342Z,10.47
2022-09-17T18:44:15.344Z,19.97
2022-09-17T18:46:42.777Z,15.00
2022-09-17T18:49:09.860Z,10.85
2022-09-17T18:51:37.417Z,13.63
2022-09-17T18:54:04.366Z,13.63
2022-09-17T18:56:32.692Z,11.57
2022-09-17T18:59:03.281Z,19.50
2022-09-17T19:01:32.717Z,12.43
2022-09-17T19:03:59.829Z,14.50
2022-09-17T19:06:29.526Z,9.32
2022-09-17T19:09:00.111Z,12.32
2022-09-17T19:11:27.011Z,13.55
2022-09-17T19:13:53.819Z,15.70
2022-09-17T19:16:20.723Z,11.15
2022-09-17T19:18:47.650Z,13.50
2022-09-17T19:21:16.802Z,10.05
2022-09-17T19:23:44.881Z,12.32
2022-09-17T19:26:13.951Z,6.90
2022-09-17T19:28:40.835Z,11.55
2022-09-17T19:31:12.082Z,17.40
2022-09-17T19:33:39.389Z,10.15
2022-09-17T19:36:08.283Z,16.30
2022-09-17T19:38:35.199Z,9.30
2022-09-17T19:41:04.142Z,10.25
2022-09-17T19:43:31.014Z,4.88
2022-09-17T19:46:05.135Z,16.05
2022-09-17T19:48:32.451Z,11.65
2022-09-17T19:50:59.270Z,11.63
2022-09-17T19:53:26.082Z,8.90
2022-09-17T19:55:52.875Z,8.95
2022-09-17T19:58:19.718Z,13.45
2022-09-17T20:00:46.662Z,7.00
2022-09-17T20:03:14.429Z,9.30
2022-09-17T20:05:41.543Z,12.10
2022-09-17T20:08:08.407Z,13.88
2022-09-17T20:10:37.304Z,9.18
2022-09-17T20:13:04.184Z,10.90
2022-09-17T20:15:34.393Z,13.05
2022-09-17T20:18:01.269Z,9.88
2022-09-17T20:20:28.667Z,14.25
2022-09-17T20:22:56.455Z,12.98
2022-09-17T20:25:25.570Z,17.80
2022-09-17T20:27:53.249Z,12.43
2022-09-17T20:30:20.089Z,9.05
2022-09-17T20:32:47.922Z,10.57
2022-09-17T20:35:14.786Z,8.93
2022-09-17T20:38:44.509Z,10.25
2022-09-17T20:40:30.054Z,12.10
2022-09-17T20:42:57.011Z,13.68
2022-09-17T20:45:23.779Z,12.57
2022-09-17T20:47:51.218Z,13.50
2022-09-17T20:50:17.988Z,16.70
2022-09-17T20:52:44.796Z,10.70
2022-09-17T20:55:11.698Z,13.25
2022-09-17T20:57:38.478Z,12.43
2022-09-17T21:00:17.928Z,14.50
2022-09-17T21:02:50.514Z,14.57
2022-09-17T21:05:20.154Z,9.07
2022-09-17T21:07:46.911Z,5.72
2022-09-17T21:10:14.229Z,7.95
2022-09-17T21:12:40.998Z,13.32
2022-09-17T21:15:08.134Z,7.93
2022-09-17T21:17:35.030Z,12.60
2022-09-17T21:20:02.465Z,11.18
2022-09-17T21:22:29.237Z,10.00
2022-09-17T21:24:56.143Z,14.32
2022-09-17T21:27:23.027Z,12.43
2022-09-17T21:29:51.095Z,13.60
2022-09-17T21:32:17.924Z,11.57
2022-09-17T21:34:44.712Z,12.25
2022-09-17T21:37:11.540Z,11.50
2022-09-17T21:39:39.035Z,8.80
2022-09-17T21:42:05.902Z,7.47
2022-09-17T21:44:32.732Z,13.85
2022-09-17T21:46:59.553Z,14.68
2022-09-17T21:49:26.362Z,10.63
2022-09-17T21:51:53.143Z,12.50
2022-09-17T21:54:20.134Z,8.47
2022-09-17T21:56:47.056Z,11.73
2022-09-17T21:59:15.119Z,15.07
2022-09-17T22:01:48.945Z,12.63
2022-09-17T22:04:17.366Z,6.88
2022-09-17T22:06:44.567Z,13.32
2022-09-17T22:09:22.631Z,9.75
2022-09-17T22:11:49.455Z,11.95
2022-09-17T22:14:19.480Z,9.68
2022-09-17T22:16:48.660Z,17.00
2022-09-17T22:19:16.750Z,7.57
2022-09-17T22:21:46.582Z,9.88
2022-09-17T22:24:14.214Z,7.05
2022-09-17T22:26:45.966Z,9.50
2022-09-17T22:29:14.517Z,11.82
2022-09-17T22:31:41.338Z,5.88
2022-09-17T22:34:09.313Z,7.03
2022-09-17T22:36:36.150Z,9.18
2022-09-17T22:39:03.209Z,7.80
2022-09-17T22:41:34.322Z,10.82
2022-09-17T22:44:02.625Z,10.93
2022-09-17T22:46:33.814Z,18.63
2022-09-17T22:49:00.822Z,10.60
2022-09-17T22:51:28.615Z,13.27
2022-09-17T22:53:55.874Z,11.82
2022-09-17T22:56:23.393Z,7.45
2022-09-17T22:58:50.253Z,7.75
2022-09-17T23:01:21.605Z,6.53
2022-09-17T23:03:49.421Z,8.25
2022-09-17T23:06:18.029Z,13.98
2022-09-17T23:08:44.889Z,10.40
2022-09-17T23:11:38.655Z,13.15
2022-09-17T23:14:08.617Z,15.43
2022-09-17T23:16:37.171Z,11.57
2022-09-17T23:19:04.134Z,9.35
2022-09-17T23:21:30.991Z,12.13
2022-09-17T23:23:57.823Z,15.23
2022-09-17T23:26:25.406Z,12.73
2022-09-17T23:28:52.331Z,12.88
2022-09-17T23:31:21.091Z,7.18
2022-09-17T23:33:48.156Z,5.75
2022-09-17T23:36:19.801Z,7.65
2022-09-17T23:38:47.089Z,9.25
2022-09-17T23:41:27.653Z,8.27
2022-09-17T23:43:55.876Z,10.90
2022-09-17T23:46:23.563Z,9.43
2022-09-17T23:48:51.703Z,9.48
2022-09-17T23:51:18.578Z,9.40
2022-09-17T23:53:45.479Z,6.50
2022-09-17T23:56:13.593Z,8.20
2022-09-17T23:58:40.415Z,11.45
